01:37 Rennrad Moetz - Doerfer - Ibk Unibruecke - Kranebitten - Silz - Roppen - Silz - Moetz
Ort Moetz Datum 14.10.2017 14:29:28
Kategorie Rennrad
Distanz 101,01 Kilometer Steigung 452,0 Meter Gefälle -456,0 Meter
Gesamt Zeit 03:16:32 Aktiv 03:16:32 Pause 00:00:00
Durchs. Tempo 30,8 km/h Tempo max. 52,5 km/h Tempo min. 12,3 km/h
Kalorien 0 Durchs. HF 113 BPM HF max. 138 BPM
Wetter 19 °C Clear Min/Max: 15,3 °C/20,3 °C; Druck: 1026,5 mbar; Rel. Feuchte: 59,9%; Taupunkt: 11,4 °C; Windgeschwindigkeit: 1,0 km/h; Niederschlag: 0,0mm
Ausrüstung Bontrager - RL Road
Scott - Addict 20
Shimano - CN-HG601-11
Notiz Moetz - Doerfer - Radweg - Innsbruck Unibruecke - Radweg - Kranebitten - Silz - Roppen - Silz - Moetz ... trocken, leichter Wind, super Radlwetter - ganz locker! (10.000 km 2017 voll) ... garmin connect
Splits
Distanz (km) Gesamt Zeit Split Zeit Split Tempo Split Tempo Höhenprofil (m)
1,00 00:02:09 00:02:09 00:02:10 27,8 -10,04
2,00 00:04:03 00:01:53 00:01:54 31,7 0,31
3,00 00:05:42 00:01:38 00:01:39 36,4 -0,69
4,00 00:07:31 00:01:48 00:01:49 33,0 -3,87
5,00 00:09:18 00:01:47 00:01:47 33,6 0,83
6,00 00:11:04 00:01:46 00:01:46 33,8 -0,54
7,00 00:12:57 00:01:52 00:01:53 31,9 -0,95
8,00 00:14:45 00:01:48 00:01:48 33,3 -7,66
9,00 00:16:34 00:01:49 00:01:49 33,0 -2,78
10,00 00:18:21 00:01:47 00:01:47 33,5 -1,86
11,00 00:20:21 00:01:59 00:01:59 30,1 10,34
12,00 00:22:28 00:02:07 00:02:07 28,3 -4,86
13,00 00:24:14 00:01:46 00:01:46 33,8 -7,97
14,00 00:27:03 00:02:48 00:02:49 21,3 26,35
15,00 00:29:25 00:02:21 00:02:22 25,4 -9,25
16,00 00:30:45 00:01:19 00:01:20 45,0 -26,88
17,00 00:32:48 00:02:02 00:02:03 29,3 5,13
18,00 00:34:40 00:01:51 00:01:52 32,2 -2,66
19,00 00:36:33 00:01:52 00:01:53 31,9 -0,61
20,00 00:38:47 00:02:14 00:02:15 26,8 8,21
21,00 00:40:23 00:01:35 00:01:36 37,7 -13,92
22,00 00:42:11 00:01:48 00:01:48 33,2 -4,88
23,00 00:43:56 00:01:45 00:01:45 34,2 -1,70
24,00 00:45:48 00:01:51 00:01:52 32,3 -0,51
25,00 00:47:38 00:01:50 00:01:50 32,6 -5,15
26,00 00:49:36 00:01:57 00:01:58 30,5 5,65
27,00 00:52:13 00:02:36 00:02:37 22,9 17,43
28,00 00:54:07 00:01:53 00:01:54 31,6 -12,03
29,00 00:55:45 00:01:38 00:01:38 36,7 -14,77
30,00 00:57:35 00:01:50 00:01:50 32,7 -3,51
31,00 00:59:30 00:01:54 00:01:54 31,4 -1,43
32,00 01:01:34 00:02:03 00:02:04 29,0 5,75
33,00 01:03:47 00:02:13 00:02:13 27,0 -11,26
34,00 01:05:43 00:01:56 00:01:56 31,0 -3,59
35,00 01:07:45 00:02:01 00:02:01 29,7 -1,70
36,00 01:09:41 00:01:56 00:01:56 30,9 -2,28
37,00 01:11:42 00:02:00 00:02:01 29,8 -1,72
38,00 01:13:51 00:02:09 00:02:10 27,7 1,42
39,00 01:15:57 00:02:05 00:02:06 28,7 1,11
40,00 01:18:25 00:02:28 00:02:28 24,3 1,14
41,00 01:20:24 00:01:58 00:01:59 30,3 2,49
42,00 01:22:22 00:01:57 00:01:58 30,6 5,71
43,00 01:24:23 00:02:01 00:02:01 29,7 0,41
44,00 01:27:34 00:03:11 00:03:11 18,8 26,12
45,00 01:29:26 00:01:51 00:01:51 32,3 2,35
46,00 01:30:54 00:01:28 00:01:28 40,8 -23,05
47,00 01:32:41 00:01:46 00:01:47 33,7 0,03
48,00 01:34:39 00:01:58 00:01:59 30,4 8,87
49,00 01:36:33 00:01:53 00:01:54 31,6 1,42
50,00 01:39:12 00:02:38 00:02:39 22,7 21,88
51,00 01:41:18 00:02:06 00:02:07 28,5 -2,06
52,00 01:42:47 00:01:29 00:01:29 40,4 -7,63
53,00 01:44:35 00:01:48 00:01:48 33,3 0,31
54,00 01:46:25 00:01:49 00:01:49 32,9 -10,33
55,00 01:48:14 00:01:49 00:01:49 32,9 7,27
56,00 01:49:58 00:01:43 00:01:44 34,7 0,93
57,00 01:51:52 00:01:54 00:01:55 31,4 0,32
58,00 01:53:45 00:01:52 00:01:52 32,0 0,65
59,00 01:55:35 00:01:49 00:01:50 32,8 3,01
60,00 01:57:27 00:01:52 00:01:52 32,0 4,46
61,00 01:59:20 00:01:52 00:01:53 32,0 -3,68
62,00 02:01:05 00:01:45 00:01:45 34,2 6,20
63,00 02:03:00 00:01:54 00:01:55 31,4 -1,30
64,00 02:04:54 00:01:54 00:01:54 31,5 1,41
65,00 02:07:09 00:02:14 00:02:15 26,7 4,07
66,00 02:09:06 00:01:57 00:01:58 30,6 -0,71
67,00 02:10:56 00:01:49 00:01:49 33,0 2,11
68,00 02:12:46 00:01:50 00:01:51 32,5 2,50
69,00 02:14:47 00:02:00 00:02:00 30,0 6,72
70,00 02:16:33 00:01:46 00:01:46 33,8 1,63
71,00 02:18:21 00:01:48 00:01:48 33,2 -2,10
72,00 02:20:10 00:01:48 00:01:49 33,1 1,71
73,00 02:21:59 00:01:48 00:01:48 33,2 3,97
74,00 02:23:50 00:01:51 00:01:52 32,2 0,03
75,00 02:25:46 00:01:55 00:01:56 31,2 0,17
76,00 02:27:40 00:01:53 00:01:54 31,6 7,18
77,00 02:29:31 00:01:50 00:01:51 32,5 8,51
78,00 02:31:44 00:02:13 00:02:14 27,0 6,86
79,00 02:33:41 00:01:56 00:01:57 30,8 6,28
80,00 02:35:38 00:01:57 00:01:57 30,7 1,64
81,00 02:37:32 00:01:53 00:01:54 31,6 5,48
82,00 02:39:30 00:01:57 00:01:58 30,5 3,83
83,00 02:41:42 00:02:12 00:02:12 27,3 11,70
84,00 02:44:50 00:03:08 00:03:08 19,1 37,01
85,00 02:46:37 00:01:46 00:01:46 33,9 -8,29
86,00 02:48:45 00:02:08 00:02:08 28,1 10,15
87,00 02:50:26 00:01:40 00:01:41 35,8 -15,64
88,00 02:52:43 00:02:17 00:02:17 26,2 12,58
89,00 02:54:41 00:01:58 00:01:59 30,3 -0,28
90,00 02:56:20 00:01:38 00:01:38 36,6 -0,18
91,00 02:58:06 00:01:45 00:01:46 34,0 -23,45
92,00 02:59:28 00:01:22 00:01:23 43,6 -19,36
93,00 03:01:08 00:01:39 00:01:39 36,2 -4,76
94,00 03:02:58 00:01:49 00:01:50 32,7 -6,61
95,00 03:04:49 00:01:51 00:01:51 32,3 -1,95
96,00 03:06:42 00:01:52 00:01:53 31,9 -5,81
97,00 03:08:28 00:01:46 00:01:46 33,9 -5,52
98,00 03:10:14 00:01:45 00:01:45 34,2 -9,25
99,00 03:12:10 00:01:56 00:01:56 31,0 -7,65
100,00 03:14:00 00:01:50 00:01:50 32,6 -2,67
101,00 03:16:14 00:02:13 00:02:14 26,9 9,37
101,08 03:16:32 00:00:17 00:03:38 16,5 0,44